createdAt,value
2019-05-03T00:00:58.365Z,12.92
2019-05-03T00:01:58.371Z,12.89
2019-05-03T00:02:58.384Z,12.89
2019-05-03T00:03:58.394Z,12.89
2019-05-03T00:04:58.396Z,12.89
2019-05-03T00:05:58.402Z,12.97
2019-05-03T00:06:58.413Z,12.89
2019-05-03T00:07:58.422Z,12.93
2019-05-03T00:08:58.427Z,12.99
2019-05-03T00:09:58.436Z,12.97
2019-05-03T00:10:58.444Z,12.95
2019-05-03T00:11:58.454Z,12.97
2019-05-03T00:12:58.462Z,13.03
2019-05-03T00:13:58.470Z,13.02
2019-05-03T00:14:58.475Z,13.03
2019-05-03T00:15:58.483Z,12.97
2019-05-03T00:16:58.490Z,13.07
2019-05-03T00:17:58.506Z,13.06
2019-05-03T00:19:00.933Z,13.03
2019-05-03T00:19:58.515Z,13.07
2019-05-03T00:20:58.524Z,12.99
2019-05-03T00:21:58.532Z,13.00
2019-05-03T00:22:58.537Z,13.00
2019-05-03T00:23:58.549Z,13.04
2019-05-03T00:25:06.072Z,13.02
2019-05-03T00:25:58.566Z,13.09
2019-05-03T00:26:58.573Z,13.11
2019-05-03T00:27:58.578Z,13.11
2019-05-03T00:28:58.587Z,13.03
2019-05-03T00:29:58.595Z,13.03
2019-05-03T00:30:58.604Z,12.96
2019-05-03T00:31:58.612Z,12.95
2019-05-03T00:32:58.620Z,12.95
2019-05-03T00:33:58.629Z,12.95
2019-05-03T00:34:58.637Z,12.93
2019-05-03T00:35:58.642Z,12.89
2019-05-03T00:36:58.650Z,13.03
2019-05-03T00:37:58.658Z,13.06
2019-05-03T00:38:58.668Z,13.06
2019-05-03T00:39:58.676Z,13.02
2019-05-03T00:40:58.684Z,12.99
2019-05-03T00:41:58.688Z,13.00
2019-05-03T00:42:58.701Z,13.03
2019-05-03T00:43:58.706Z,13.06
2019-05-03T00:44:58.712Z,13.02
2019-05-03T00:45:58.720Z,13.00
2019-05-03T00:46:58.729Z,13.06
2019-05-03T00:47:58.748Z,13.00
2019-05-03T00:48:58.747Z,13.03
2019-05-03T00:49:58.753Z,13.02
2019-05-03T00:50:58.759Z,13.00
2019-05-03T00:51:58.765Z,12.96
2019-05-03T00:52:58.775Z,12.99
2019-05-03T00:53:58.784Z,12.99
2019-05-03T00:54:58.791Z,12.96
2019-05-03T00:55:58.801Z,12.96
2019-05-03T00:56:58.809Z,12.99
2019-05-03T00:57:58.816Z,12.99
2019-05-03T00:58:58.818Z,13.04
2019-05-03T00:59:58.829Z,12.95
2019-05-03T01:00:58.839Z,12.93
2019-05-03T01:01:58.848Z,12.89
2019-05-03T01:02:58.856Z,12.96
2019-05-03T01:03:58.867Z,12.97
2019-05-03T01:04:58.877Z,12.95
2019-05-03T01:05:58.884Z,12.95
2019-05-03T01:06:58.889Z,12.95
2019-05-03T01:07:58.895Z,12.96
2019-05-03T01:08:58.905Z,12.92
2019-05-03T01:09:58.913Z,12.92
2019-05-03T01:10:58.935Z,12.81
2019-05-03T01:11:58.929Z,12.81
2019-05-03T01:12:58.936Z,12.88
2019-05-03T01:13:58.942Z,12.89
2019-05-03T01:14:58.949Z,12.95
2019-05-03T01:15:58.983Z,12.88
2019-05-03T01:16:58.966Z,12.87
2019-05-03T01:17:58.979Z,12.88
2019-05-03T01:18:58.982Z,12.84
2019-05-03T01:19:58.984Z,12.75
2019-05-03T01:20:58.994Z,12.71
2019-05-03T01:21:59.019Z,12.71
2019-05-03T01:22:59.016Z,12.62
2019-05-03T01:23:59.030Z,12.67
2019-05-03T01:24:59.028Z,12.63
2019-05-03T01:25:59.037Z,12.59
2019-05-03T01:26:59.047Z,12.54
2019-05-03T01:27:59.052Z,12.48
2019-05-03T01:28:59.058Z,12.49
2019-05-03T01:29:59.065Z,12.45
2019-05-03T01:30:59.078Z,12.39
2019-05-03T01:31:59.085Z,12.38
2019-05-03T01:32:59.089Z,12.39
2019-05-03T01:33:59.101Z,12.38
2019-05-03T01:34:59.113Z,12.39
2019-05-03T01:35:59.133Z,12.42
2019-05-03T01:36:59.122Z,12.44
2019-05-03T01:37:59.129Z,12.41
2019-05-03T01:38:59.142Z,12.34
2019-05-03T01:39:59.147Z,12.39
2019-05-03T01:40:59.152Z,12.41
2019-05-03T01:41:59.161Z,12.27
2019-05-03T01:42:59.173Z,12.27
2019-05-03T01:43:59.178Z,12.30
2019-05-03T01:44:59.187Z,12.23
2019-05-03T01:45:59.190Z,12.23
2019-05-03T01:46:59.203Z,12.23
2019-05-03T01:47:59.207Z,12.16
2019-05-03T01:48:59.212Z,12.13
2019-05-03T01:49:59.220Z,12.20
2019-05-03T01:50:59.230Z,12.13
2019-05-03T01:51:59.240Z,12.11
2019-05-03T01:52:59.242Z,12.15
2019-05-03T01:53:59.256Z,12.21
2019-05-03T01:54:59.262Z,12.08
2019-05-03T01:55:59.274Z,12.19
2019-05-03T01:56:59.343Z,12.19
2019-05-03T01:57:59.288Z,12.20
2019-05-03T01:58:59.292Z,12.27
2019-05-03T01:59:59.300Z,12.27
2019-05-03T02:00:59.304Z,12.29
2019-05-03T02:01:59.313Z,12.34
2019-05-03T02:02:59.316Z,12.37
2019-05-03T02:03:59.332Z,12.34
2019-05-03T02:04:59.331Z,12.29
2019-05-03T02:05:59.346Z,12.24
2019-05-03T02:06:59.358Z,12.24
2019-05-03T02:07:59.358Z,12.27
2019-05-03T02:08:59.369Z,12.34
2019-05-03T02:09:59.377Z,12.24
2019-05-03T02:10:59.385Z,12.20
2019-05-03T02:11:59.388Z,12.13
2019-05-03T02:12:59.401Z,12.15
2019-05-03T02:13:59.402Z,12.15
2019-05-03T02:14:59.417Z,12.16
2019-05-03T02:15:59.430Z,12.20
2019-05-03T02:16:59.432Z,12.19
2019-05-03T02:17:59.437Z,12.15
2019-05-03T02:18:59.446Z,12.15
2019-05-03T02:19:59.455Z,12.11
2019-05-03T02:21:01.531Z,12.13
2019-05-03T02:21:59.467Z,12.12
2019-05-03T02:22:59.476Z,12.06
2019-05-03T02:23:59.482Z,12.09
2019-05-03T02:25:01.613Z,12.08
2019-05-03T02:25:59.501Z,12.19
2019-05-03T02:26:59.504Z,12.13
2019-05-03T02:27:59.514Z,12.13
2019-05-03T02:28:59.514Z,12.08
2019-05-03T02:30:02.739Z,12.12
2019-05-03T02:30:59.536Z,12.08
2019-05-03T02:31:59.545Z,12.05
2019-05-03T02:32:59.552Z,11.99
2019-05-03T02:33:59.559Z,11.93
2019-05-03T02:34:59.568Z,12.05
2019-05-03T02:35:59.575Z,12.11
2019-05-03T02:37:02.690Z,12.06
2019-05-03T02:37:59.594Z,12.04
2019-05-03T02:38:59.597Z,12.05
2019-05-03T02:39:59.606Z,12.09
2019-05-03T02:41:02.680Z,12.05
2019-05-03T02:42:06.788Z,12.09
2019-05-03T02:42:59.627Z,12.05
2019-05-03T02:43:59.635Z,12.05
2019-05-03T02:44:59.641Z,12.04
2019-05-03T02:45:59.651Z,11.99
2019-05-03T02:46:59.658Z,12.02
2019-05-03T02:47:59.667Z,11.87
2019-05-03T02:48:59.671Z,12.02
2019-05-03T02:49:59.681Z,12.04
2019-05-03T02:50:59.687Z,12.04
2019-05-03T02:51:59.695Z,12.04
2019-05-03T02:52:59.703Z,11.96
2019-05-03T02:53:59.717Z,12.09
2019-05-03T02:54:59.717Z,12.05
2019-05-03T02:56:13.765Z,12.11
2019-05-03T02:56:59.732Z,11.99
2019-05-03T02:57:59.740Z,12.08
2019-05-03T02:58:59.758Z,12.08
2019-05-03T02:59:59.754Z,12.08
2019-05-03T03:00:59.762Z,12.13
2019-05-03T03:01:59.770Z,12.12
2019-05-03T03:02:59.778Z,11.99
2019-05-03T03:03:59.789Z,12.12
2019-05-03T03:04:59.790Z,12.04
2019-05-03T03:05:59.799Z,11.94
2019-05-03T03:06:59.810Z,11.89
2019-05-03T03:07:59.819Z,11.94
2019-05-03T03:08:59.819Z,11.93
2019-05-03T03:09:59.828Z,11.90
2019-05-03T03:10:59.837Z,11.93
2019-05-03T03:11:59.849Z,11.89
2019-05-03T03:12:59.854Z,11.90
2019-05-03T03:13:59.877Z,11.90
2019-05-03T03:14:59.867Z,11.99
2019-05-03T03:15:59.873Z,11.90
2019-05-03T03:16:59.879Z,11.93
2019-05-03T03:17:59.890Z,12.06
2019-05-03T03:18:59.900Z,12.04
2019-05-03T03:19:59.905Z,12.02
2019-05-03T03:20:59.913Z,12.04
2019-05-03T03:21:59.925Z,11.99
2019-05-03T03:22:59.933Z,12.01
2019-05-03T03:23:59.937Z,11.99
2019-05-03T03:24:59.943Z,12.04
2019-05-03T03:25:59.951Z,11.90
2019-05-03T03:26:59.956Z,11.86
2019-05-03T03:27:59.965Z,11.89
2019-05-03T03:28:59.971Z,11.94
2019-05-03T03:29:59.979Z,11.85
2019-05-03T03:30:59.988Z,11.89
2019-05-03T03:31:59.997Z,11.85
2019-05-03T03:33:00.005Z,11.85
2019-05-03T03:34:00.017Z,11.97
2019-05-03T03:35:03.152Z,11.89
2019-05-03T03:36:29.488Z,11.86
2019-05-03T03:37:05.129Z,11.99
2019-05-03T03:38:00.043Z,11.97
2019-05-03T03:39:00.051Z,12.02
2019-05-03T03:40:00.055Z,12.04
2019-05-03T03:41:00.062Z,12.06
2019-05-03T03:42:00.070Z,12.09
2019-05-03T03:43:00.077Z,12.11
2019-05-03T03:44:00.087Z,12.09
2019-05-03T03:45:00.088Z,12.08
2019-05-03T03:46:00.109Z,12.02
2019-05-03T03:47:00.111Z,12.08
2019-05-03T03:48:00.118Z,12.09
2019-05-03T03:49:00.128Z,11.99
2019-05-03T03:50:00.136Z,12.11
2019-05-03T03:51:00.136Z,12.06
2019-05-03T03:52:00.148Z,12.01
2019-05-03T03:53:00.155Z,12.02
2019-05-03T03:54:00.162Z,12.04
2019-05-03T03:55:00.172Z,11.85
2019-05-03T03:56:00.176Z,11.83
2019-05-03T03:57:05.055Z,11.77
2019-05-03T03:58:00.185Z,11.78
2019-05-03T03:59:00.199Z,11.78
2019-05-03T04:00:00.207Z,11.71
2019-05-03T04:01:00.210Z,11.70
2019-05-03T04:02:00.220Z,11.70
2019-05-03T04:03:00.223Z,11.80
2019-05-03T04:04:00.236Z,11.75
2019-05-03T04:05:00.244Z,11.78
2019-05-03T04:06:00.253Z,11.83
2019-05-03T04:07:01.335Z,11.82
2019-05-03T04:08:00.272Z,11.87
2019-05-03T04:09:00.282Z,11.89
2019-05-03T04:10:00.285Z,11.89
2019-05-03T04:11:07.965Z,11.99
2019-05-03T04:13:05.474Z,12.05
2019-05-03T04:14:05.420Z,12.06
2019-05-03T04:15:05.670Z,12.06
2019-05-03T04:16:05.553Z,12.05
2019-05-03T04:17:05.955Z,12.04
2019-05-03T04:18:05.592Z,12.09
2019-05-03T04:19:05.742Z,12.20
2019-05-03T04:20:05.036Z,12.20
2019-05-03T04:21:05.521Z,12.21
2019-05-03T04:22:05.843Z,12.20
2019-05-03T04:23:05.313Z,12.30
2019-05-03T04:24:06.027Z,12.37
2019-05-03T04:25:05.962Z,12.37
2019-05-03T04:26:07.004Z,12.39
2019-05-03T04:27:17.685Z,12.39
2019-05-03T04:28:05.718Z,12.39
2019-05-03T04:29:05.358Z,12.42
2019-05-03T04:30:05.896Z,12.41
2019-05-03T04:31:06.184Z,12.38
2019-05-03T04:32:06.055Z,12.39
2019-05-03T04:33:06.032Z,12.41
2019-05-03T04:34:05.049Z,12.44
2019-05-03T04:35:05.395Z,12.38
2019-05-03T04:36:05.422Z,12.45
2019-05-03T04:37:05.345Z,12.45
2019-05-03T04:38:05.503Z,12.51
2019-05-03T04:39:05.388Z,12.44
2019-05-03T04:40:06.245Z,12.49
2019-05-03T04:41:05.954Z,12.57
2019-05-03T04:42:06.790Z,12.56
2019-05-03T04:43:05.987Z,12.64
2019-05-03T04:44:06.274Z,12.63
2019-05-03T04:45:05.824Z,12.74
2019-05-03T04:46:06.685Z,12.74
2019-05-03T04:47:06.939Z,12.77
2019-05-03T04:48:05.918Z,12.70
2019-05-03T04:49:05.713Z,12.71
2019-05-03T04:50:05.645Z,12.74
2019-05-03T04:51:05.846Z,12.82
2019-05-03T04:52:05.825Z,12.82
2019-05-03T04:53:05.676Z,12.82
2019-05-03T04:54:05.358Z,12.70
2019-05-03T04:55:06.597Z,12.79
2019-05-03T04:56:05.780Z,12.71
2019-05-03T04:57:06.597Z,12.79
2019-05-03T04:58:04.901Z,12.74
2019-05-03T04:59:05.189Z,12.79
2019-05-03T05:00:06.050Z,12.70
2019-05-03T05:01:06.260Z,12.71
2019-05-03T05:02:06.086Z,12.77
2019-05-03T05:03:05.934Z,12.67
2019-05-03T05:04:05.384Z,12.63
2019-05-03T05:05:06.025Z,12.64
2019-05-03T05:06:06.270Z,12.64
2019-05-03T05:07:06.210Z,12.63
2019-05-03T05:08:05.887Z,12.66
2019-05-03T05:09:05.073Z,12.56
2019-05-03T05:10:05.253Z,12.56
2019-05-03T05:11:05.420Z,12.52
2019-05-03T05:12:05.769Z,12.48
2019-05-03T05:13:05.445Z,12.39
2019-05-03T05:14:06.372Z,12.38
2019-05-03T05:15:05.308Z,12.41
2019-05-03T05:16:05.879Z,12.44
2019-05-03T05:17:06.166Z,12.42
2019-05-03T05:18:05.836Z,12.39
2019-05-03T05:19:05.717Z,12.41
2019-05-03T05:20:05.298Z,12.42
2019-05-03T05:21:04.810Z,12.48
2019-05-03T05:22:05.950Z,12.45
2019-05-03T05:23:04.819Z,12.45
2019-05-03T05:24:05.551Z,12.56
2019-05-03T05:25:04.835Z,12.60
2019-05-03T05:26:05.549Z,12.51
2019-05-03T05:27:05.337Z,12.54
2019-05-03T05:28:04.866Z,12.63
2019-05-03T05:29:05.347Z,12.54
2019-05-03T05:30:04.884Z,12.54
2019-05-03T05:31:04.885Z,12.54
2019-05-03T05:32:05.323Z,12.49
2019-05-03T05:33:05.402Z,12.60
2019-05-03T05:34:05.481Z,12.54
2019-05-03T05:35:05.215Z,12.57
2019-05-03T05:36:04.981Z,12.59
2019-05-03T05:37:05.420Z,12.56
2019-05-03T05:38:04.939Z,12.59
2019-05-03T05:39:05.283Z,12.46
2019-05-03T05:40:05.305Z,12.39
2019-05-03T05:41:05.384Z,12.37
2019-05-03T05:42:04.967Z,12.42
2019-05-03T05:43:05.123Z,12.37
2019-05-03T05:44:05.512Z,12.34
2019-05-03T05:45:05.082Z,12.42
2019-05-03T05:46:05.390Z,12.45
2019-05-03T05:47:05.010Z,12.44
2019-05-03T05:48:05.214Z,12.45
2019-05-03T05:49:05.023Z,12.44
2019-05-03T05:50:05.072Z,12.46
2019-05-03T05:51:05.043Z,12.48
2019-05-03T05:52:05.060Z,12.48
2019-05-03T05:53:05.125Z,12.49
2019-05-03T05:54:05.292Z,12.42
2019-05-03T05:55:05.069Z,12.41
2019-05-03T05:56:05.103Z,12.51
2019-05-03T05:57:08.152Z,12.54
2019-05-03T05:58:07.915Z,12.51
2019-05-03T05:59:05.099Z,12.41
2019-05-03T06:00:05.123Z,12.42
2019-05-03T06:01:05.482Z,12.57
2019-05-03T06:02:05.126Z,12.59
2019-05-03T06:03:05.252Z,12.56
2019-05-03T06:04:05.414Z,12.38
2019-05-03T06:05:05.153Z,12.42
2019-05-03T06:06:05.391Z,12.46
2019-05-03T06:07:05.161Z,12.38
2019-05-03T06:08:05.168Z,12.45
2019-05-03T06:09:05.232Z,12.45
2019-05-03T06:10:05.369Z,12.45
2019-05-03T06:11:05.196Z,12.49
2019-05-03T06:12:05.201Z,12.42
2019-05-03T06:13:05.210Z,12.46
2019-05-03T06:14:05.221Z,12.41
2019-05-03T06:15:05.225Z,12.42
2019-05-03T06:16:05.275Z,12.37
2019-05-03T06:17:05.506Z,12.44
2019-05-03T06:18:05.774Z,12.42
2019-05-03T06:19:05.251Z,12.39
2019-05-03T06:20:05.426Z,12.38
2019-05-03T06:21:05.270Z,12.41
2019-05-03T06:22:05.278Z,12.38
2019-05-03T06:23:05.361Z,12.38
2019-05-03T06:24:05.296Z,12.39
2019-05-03T06:25:06.381Z,12.42
2019-05-03T06:26:05.305Z,12.38
2019-05-03T06:27:05.315Z,12.48
2019-05-03T06:28:17.336Z,12.69
2019-05-03T06:29:05.331Z,12.67
2019-05-03T06:30:05.342Z,12.56
2019-05-03T06:31:05.354Z,12.60
2019-05-03T06:32:05.486Z,12.62
2019-05-03T06:33:05.443Z,12.56
2019-05-03T06:34:05.370Z,12.48
2019-05-03T06:35:05.376Z,12.48
2019-05-03T06:36:05.387Z,12.46
2019-05-03T06:37:05.394Z,12.46
2019-05-03T06:38:05.401Z,12.57
2019-05-03T06:39:08.229Z,12.66
2019-05-03T06:40:06.170Z,12.64
2019-05-03T06:41:05.424Z,12.67
2019-05-03T06:42:09.767Z,12.71
2019-05-03T06:43:11.194Z,12.71
2019-05-03T06:44:05.444Z,12.66
2019-05-03T06:45:10.527Z,12.64
2019-05-03T06:46:05.461Z,12.70
2019-05-03T06:47:06.714Z,12.69
2019-05-03T06:48:05.599Z,12.64
2019-05-03T06:49:06.495Z,12.62
2019-05-03T06:50:05.561Z,12.69
2019-05-03T06:51:10.423Z,12.57
2019-05-03T06:52:05.959Z,12.64
2019-05-03T06:53:12.299Z,12.56
2019-05-03T06:54:05.526Z,12.39
2019-05-03T06:55:09.168Z,12.44
2019-05-03T06:56:05.539Z,12.42
2019-05-03T06:57:09.305Z,12.45
2019-05-03T06:58:05.554Z,12.54
2019-05-03T06:59:05.561Z,12.57
2019-05-03T07:00:05.568Z,12.49
2019-05-03T07:01:05.576Z,12.57
2019-05-03T07:02:05.735Z,12.67
2019-05-03T07:03:05.594Z,12.62
2019-05-03T07:04:05.600Z,12.59
2019-05-03T07:05:05.614Z,12.66
2019-05-03T07:06:05.613Z,12.67
2019-05-03T07:07:05.629Z,12.75
2019-05-03T07:08:05.632Z,12.70
2019-05-03T07:09:05.647Z,12.63
2019-05-03T07:10:05.647Z,12.69
2019-05-03T07:11:05.716Z,12.79
2019-05-03T07:12:05.661Z,12.87
2019-05-03T07:13:08.785Z,12.97
2019-05-03T07:14:05.682Z,12.95
2019-05-03T07:15:05.688Z,12.96
2019-05-03T07:16:05.693Z,12.97
2019-05-03T07:17:05.735Z,13.06
2019-05-03T07:18:05.946Z,13.06
2019-05-03T07:19:05.717Z,13.07
2019-05-03T07:20:05.726Z,13.11
2019-05-03T07:21:05.730Z,13.11
2019-05-03T07:22:05.744Z,13.15
2019-05-03T07:23:05.749Z,13.17
2019-05-03T07:24:05.763Z,13.20
2019-05-03T07:25:05.764Z,13.20
2019-05-03T07:26:05.776Z,13.24
2019-05-03T07:27:05.787Z,13.21
2019-05-03T07:28:05.802Z,13.20
2019-05-03T07:29:05.798Z,13.20
2019-05-03T07:30:05.809Z,13.20
2019-05-03T07:31:05.831Z,13.22
2019-05-03T07:32:05.813Z,13.25
2019-05-03T07:33:05.830Z,13.30
2019-05-03T07:34:05.837Z,13.21
2019-05-03T07:35:05.846Z,13.24
2019-05-03T07:36:05.850Z,13.21
2019-05-03T07:37:06.081Z,13.32
2019-05-03T07:38:05.867Z,13.38
2019-05-03T07:39:05.878Z,13.44
2019-05-03T07:40:05.892Z,13.41
2019-05-03T07:41:05.892Z,13.44
2019-05-03T07:42:05.899Z,13.38
2019-05-03T07:43:05.910Z,13.32
2019-05-03T07:44:05.921Z,13.29
2019-05-03T07:45:05.925Z,13.25
2019-05-03T07:46:05.930Z,13.21
2019-05-03T07:47:05.940Z,13.21
2019-05-03T07:48:05.949Z,13.07
2019-05-03T07:49:05.958Z,13.09
2019-05-03T07:50:05.979Z,13.15
2019-05-03T07:51:05.974Z,13.06
2019-05-03T07:52:06.064Z,13.11
2019-05-03T07:53:05.996Z,13.11
2019-05-03T07:54:05.996Z,13.25
2019-05-03T07:55:06.005Z,13.24
2019-05-03T07:56:06.012Z,13.21
2019-05-03T07:57:06.016Z,13.22
2019-05-03T07:58:06.029Z,13.20
2019-05-03T07:59:06.446Z,13.20
2019-05-03T08:00:06.043Z,13.17
2019-05-03T08:01:09.582Z,13.18
2019-05-03T08:02:06.060Z,13.24
2019-05-03T08:03:06.069Z,13.25
2019-05-03T08:04:06.090Z,13.20
2019-05-03T08:05:06.086Z,13.24
2019-05-03T08:06:06.090Z,13.17
2019-05-03T08:07:19.330Z,13.17
2019-05-03T08:08:06.104Z,13.17
2019-05-03T08:09:06.115Z,13.21
2019-05-03T08:10:06.126Z,13.09
2019-05-03T08:11:06.130Z,13.24
2019-05-03T08:12:06.141Z,13.15
2019-05-03T08:13:06.147Z,13.03
2019-05-03T08:14:06.156Z,12.97
2019-05-03T08:15:06.160Z,12.96
2019-05-03T08:16:06.172Z,12.96
2019-05-03T08:17:06.178Z,12.96
2019-05-03T08:18:06.184Z,12.95
2019-05-03T08:19:06.193Z,13.11
2019-05-03T08:20:06.206Z,13.11
2019-05-03T08:21:06.268Z,13.07
2019-05-03T08:22:06.218Z,13.11
2019-05-03T08:23:06.227Z,13.18
2019-05-03T08:24:06.235Z,13.15
2019-05-03T08:25:06.241Z,13.21
2019-05-03T08:26:06.290Z,13.30
2019-05-03T08:27:06.257Z,13.20
2019-05-03T08:28:06.265Z,13.24
2019-05-03T08:29:15.277Z,13.06
2019-05-03T08:30:06.283Z,13.20
2019-05-03T08:31:06.291Z,13.03
2019-05-03T08:32:06.297Z,13.03
2019-05-03T08:33:06.307Z,13.07
2019-05-03T08:34:06.315Z,13.04
2019-05-03T08:35:06.326Z,12.89
2019-05-03T08:36:06.328Z,12.82
2019-05-03T08:37:06.339Z,12.75
2019-05-03T08:38:06.345Z,12.79
2019-05-03T08:39:06.354Z,12.69
2019-05-03T08:40:06.354Z,12.77
2019-05-03T08:41:06.368Z,12.85
2019-05-03T08:42:06.375Z,12.88
2019-05-03T08:43:06.385Z,13.12
2019-05-03T08:44:06.395Z,13.20
2019-05-03T08:45:08.061Z,13.20
2019-05-03T08:46:06.405Z,13.27
2019-05-03T08:47:06.412Z,13.27
2019-05-03T08:48:06.422Z,13.37
2019-05-03T08:49:06.434Z,13.29
2019-05-03T08:50:06.442Z,13.29
2019-05-03T08:51:06.449Z,13.38
2019-05-03T08:52:06.454Z,13.40
2019-05-03T08:53:06.460Z,13.36
2019-05-03T08:54:06.473Z,13.41
2019-05-03T08:55:06.484Z,13.38
2019-05-03T08:56:06.487Z,13.55
2019-05-03T08:57:06.495Z,13.56
2019-05-03T08:58:06.502Z,13.58
2019-05-03T08:59:06.511Z,13.63
2019-05-03T09:00:06.516Z,13.65
2019-05-03T09:01:06.554Z,13.63
2019-05-03T09:02:13.869Z,13.58
2019-05-03T09:03:06.544Z,13.54
2019-05-03T09:04:06.550Z,13.52
2019-05-03T09:05:06.562Z,13.52
2019-05-03T09:06:06.566Z,13.52
2019-05-03T09:07:06.577Z,13.55
2019-05-03T09:08:06.584Z,13.51
2019-05-03T09:09:06.591Z,13.55
2019-05-03T09:10:06.597Z,13.43
2019-05-03T09:11:06.606Z,13.40
2019-05-03T09:12:06.614Z,13.47
2019-05-03T09:13:06.861Z,13.59
2019-05-03T09:14:06.645Z,13.69
2019-05-03T09:15:06.638Z,13.65
2019-05-03T09:16:06.691Z,13.73
2019-05-03T09:17:06.657Z,13.46
2019-05-03T09:18:06.667Z,13.54
2019-05-03T09:19:06.673Z,13.49
2019-05-03T09:20:06.681Z,13.55
2019-05-03T09:21:06.688Z,13.44
2019-05-03T09:22:06.732Z,13.54
2019-05-03T09:23:06.706Z,13.51
2019-05-03T09:24:06.716Z,13.58
2019-05-03T09:25:06.723Z,13.46
2019-05-03T09:26:06.733Z,13.47
2019-05-03T09:27:06.736Z,13.58
2019-05-03T09:28:06.747Z,13.51
2019-05-03T09:29:06.754Z,13.55
2019-05-03T09:30:06.759Z,13.54
2019-05-03T09:31:06.775Z,13.44
2019-05-03T09:32:06.778Z,13.52
2019-05-03T09:33:09.043Z,13.38
2019-05-03T09:34:08.320Z,13.37
2019-05-03T09:35:06.799Z,13.40
2019-05-03T09:36:06.804Z,13.30
2019-05-03T09:37:06.828Z,13.36
2019-05-03T09:38:06.827Z,13.37
2019-05-03T09:39:06.830Z,13.33
2019-05-03T09:40:06.843Z,13.36
2019-05-03T09:41:06.850Z,13.33
2019-05-03T09:42:06.857Z,13.27
2019-05-03T09:43:06.865Z,13.37
2019-05-03T09:44:06.875Z,13.32
2019-05-03T09:45:06.881Z,13.32
2019-05-03T09:46:06.890Z,13.25
2019-05-03T09:47:06.897Z,13.25
2019-05-03T09:48:06.905Z,13.17
2019-05-03T09:49:12.810Z,13.21
2019-05-03T09:50:06.922Z,13.22
2019-05-03T09:51:06.932Z,13.24
2019-05-03T09:52:08.430Z,13.25
2019-05-03T09:53:09.026Z,13.25
2019-05-03T09:54:06.958Z,13.33
2019-05-03T09:55:06.964Z,13.21
2019-05-03T09:56:06.970Z,13.20
2019-05-03T09:57:06.986Z,13.30
2019-05-03T09:58:06.986Z,13.18
2019-05-03T09:59:06.993Z,13.21
2019-05-03T10:00:07.006Z,13.21
2019-05-03T10:01:08.597Z,13.22
2019-05-03T10:02:07.018Z,13.20
2019-05-03T10:03:07.025Z,13.22
2019-05-03T10:04:07.035Z,13.22
2019-05-03T10:05:07.046Z,13.24
2019-05-03T10:06:07.053Z,13.17
2019-05-03T10:07:07.057Z,13.17
2019-05-03T10:08:07.065Z,13.21
2019-05-03T10:09:07.082Z,13.18
2019-05-03T10:10:07.086Z,13.21
2019-05-03T10:11:07.092Z,13.24
2019-05-03T10:12:07.098Z,13.21
2019-05-03T10:13:23.165Z,13.29
2019-05-03T10:15:11.112Z,13.21
2019-05-03T10:16:11.107Z,13.25
2019-05-03T10:18:15.132Z,13.30
2019-05-03T10:19:16.250Z,13.24
2019-05-03T10:21:19.140Z,13.25
2019-05-03T10:22:19.134Z,13.29
2019-05-03T10:24:12.554Z,13.20
2019-05-03T10:25:12.567Z,13.20
2019-05-03T10:27:16.589Z,13.20
2019-05-03T10:28:16.581Z,13.32
2019-05-03T10:30:20.571Z,13.33
2019-05-03T10:31:20.572Z,13.32
2019-05-03T10:33:25.973Z,13.37
2019-05-03T10:34:24.878Z,13.37
2019-05-03T10:36:28.598Z,13.40
2019-05-03T10:37:28.587Z,13.30
2019-05-03T10:39:32.589Z,13.38
2019-05-03T10:40:32.593Z,13.44
2019-05-03T10:42:36.612Z,13.38
2019-05-03T10:43:36.604Z,13.41
2019-05-03T10:45:40.601Z,13.44
2019-05-03T10:46:40.604Z,13.40
2019-05-03T10:48:45.271Z,13.49
2019-05-03T10:49:45.763Z,13.55
2019-05-03T10:51:48.635Z,13.58
2019-05-03T10:52:48.620Z,13.67
2019-05-03T10:54:55.742Z,13.81
2019-05-03T10:55:55.564Z,13.83
2019-05-03T10:57:57.650Z,13.95
2019-05-03T10:58:57.646Z,14.06
2019-05-03T11:01:02.152Z,14.14
2019-05-03T11:02:02.161Z,14.27
2019-05-03T11:03:55.100Z,14.28
2019-05-03T11:04:55.088Z,14.24
2019-05-03T11:06:59.149Z,14.28
2019-05-03T11:07:59.129Z,14.34
2019-05-03T11:08:59.147Z,14.24
2019-05-03T11:09:59.151Z,14.27
2019-05-03T11:10:59.154Z,14.31
2019-05-03T11:11:59.164Z,14.29
2019-05-03T11:12:59.172Z,14.28
2019-05-03T11:13:59.181Z,14.20
2019-05-03T11:15:06.354Z,14.25
2019-05-03T11:17:03.195Z,14.13
2019-05-03T11:18:03.181Z,14.24
2019-05-03T11:20:07.164Z,14.32
2019-05-03T11:21:07.178Z,14.24
2019-05-03T11:22:07.180Z,14.31
2019-05-03T11:23:07.196Z,14.24
2019-05-03T11:24:07.200Z,14.14
2019-05-03T11:25:07.208Z,14.14
2019-05-03T11:26:07.217Z,14.01
2019-05-03T11:27:07.225Z,13.96
2019-05-03T11:28:07.234Z,13.88
2019-05-03T11:29:07.241Z,13.91
2019-05-03T11:30:09.382Z,13.99
2019-05-03T11:31:07.261Z,14.07
2019-05-03T11:32:09.637Z,14.10
2019-05-03T11:33:07.274Z,14.14
2019-05-03T11:34:07.289Z,14.17
2019-05-03T11:35:07.291Z,14.10
2019-05-03T11:36:07.300Z,14.12
2019-05-03T11:37:07.308Z,14.12
2019-05-03T11:38:07.318Z,14.09
2019-05-03T11:39:07.325Z,13.98
2019-05-03T11:40:07.336Z,13.88
2019-05-03T11:41:07.343Z,13.87
2019-05-03T11:42:07.350Z,13.84
2019-05-03T11:43:07.358Z,13.81
2019-05-03T11:44:07.369Z,13.87
2019-05-03T11:45:07.378Z,13.76
2019-05-03T11:46:07.397Z,13.73
2019-05-03T11:47:07.394Z,13.73
2019-05-03T11:48:07.401Z,13.77
2019-05-03T11:49:07.408Z,13.81
2019-05-03T11:50:07.419Z,13.76
2019-05-03T11:51:07.433Z,13.84
2019-05-03T11:52:07.435Z,13.74
2019-05-03T11:53:07.439Z,13.73
2019-05-03T11:54:07.447Z,13.77
2019-05-03T11:55:11.359Z,13.81
2019-05-03T11:56:07.467Z,13.81
2019-05-03T11:57:07.477Z,13.80
2019-05-03T11:58:07.488Z,13.70
2019-05-03T11:59:07.492Z,13.70
2019-05-03T12:00:07.502Z,13.73
2019-05-03T12:01:15.782Z,13.79
2019-05-03T12:02:07.516Z,13.83
2019-05-03T12:03:07.524Z,13.70
2019-05-03T12:04:07.531Z,13.74
2019-05-03T12:05:07.540Z,13.79
2019-05-03T12:06:07.550Z,13.80
2019-05-03T12:07:07.562Z,13.74
2019-05-03T12:08:07.564Z,13.74
2019-05-03T12:09:07.570Z,13.61
2019-05-03T12:10:17.109Z,13.65
2019-05-03T12:11:07.589Z,13.69
2019-05-03T12:12:07.599Z,13.65
2019-05-03T12:13:07.607Z,13.61
2019-05-03T12:14:07.614Z,13.62
2019-05-03T12:15:07.622Z,13.61
2019-05-03T12:16:17.549Z,13.62
2019-05-03T12:17:18.034Z,13.69
2019-05-03T12:18:08.227Z,13.58
2019-05-03T12:19:16.952Z,13.55
2019-05-03T12:20:09.164Z,13.61
2019-05-03T12:21:09.096Z,13.62
2019-05-03T12:22:08.368Z,13.61
2019-05-03T12:23:08.408Z,13.65
2019-05-03T12:24:08.459Z,13.76
2019-05-03T12:25:10.490Z,13.63
2019-05-03T12:26:12.644Z,13.71
2019-05-03T12:27:07.719Z,13.70
2019-05-03T12:28:07.725Z,13.79
2019-05-03T12:29:07.735Z,13.81
2019-05-03T12:30:07.743Z,13.99
2019-05-03T12:31:07.749Z,13.98
2019-05-03T12:32:07.761Z,14.04
2019-05-03T12:33:07.766Z,14.04
2019-05-03T12:34:07.780Z,14.09
2019-05-03T12:35:07.785Z,14.14
2019-05-03T12:36:07.791Z,14.20
2019-05-03T12:37:07.800Z,14.32
2019-05-03T12:38:07.810Z,14.34
2019-05-03T12:39:23.344Z,14.32
2019-05-03T12:40:07.824Z,14.29
2019-05-03T12:41:07.838Z,14.44
2019-05-03T12:42:07.843Z,14.39
2019-05-03T12:43:07.844Z,14.47
2019-05-03T12:44:07.858Z,14.50
2019-05-03T12:45:07.866Z,14.46
2019-05-03T12:46:07.882Z,14.43
2019-05-03T12:47:07.883Z,14.31
2019-05-03T12:48:07.891Z,14.44
2019-05-03T12:49:07.900Z,14.46
2019-05-03T12:50:07.906Z,14.62
2019-05-03T12:51:08.614Z,14.67
2019-05-03T12:52:10.336Z,14.62
2019-05-03T12:53:07.932Z,14.74
2019-05-03T12:54:07.954Z,14.67
2019-05-03T12:55:07.950Z,14.74
2019-05-03T12:56:11.415Z,14.84
2019-05-03T12:57:07.966Z,14.95
2019-05-03T12:58:07.975Z,15.03
2019-05-03T12:59:07.984Z,15.23
2019-05-03T13:00:07.996Z,15.38
2019-05-03T13:01:08.002Z,15.52
2019-05-03T13:02:08.012Z,15.68
2019-05-03T13:03:08.016Z,15.86
2019-05-03T13:04:08.027Z,15.94
2019-05-03T13:05:08.035Z,16.06
2019-05-03T13:06:08.046Z,16.31
2019-05-03T13:07:08.054Z,16.41
2019-05-03T13:08:08.089Z,16.49
2019-05-03T13:09:08.067Z,16.50
2019-05-03T13:10:08.080Z,16.65
2019-05-03T13:11:08.093Z,16.71
2019-05-03T13:12:08.101Z,16.58
2019-05-03T13:13:08.106Z,16.81
2019-05-03T13:14:08.118Z,16.83
2019-05-03T13:15:08.128Z,16.63